Time;durP1;ratioP1;P1;durP2;ratioP2;P2;SDS_P1;SDS_P2;PMS_P1;PMS_P2;Temp;Humidity;BMP_temperature;BMP_pressure;BME280_temperature;BME280_humidity;BME280_pressure;Samples;Min_cycle;Max_cycle;Signal;HPM_P1;HPM_P2
2023/05/13 00:01:14;;;;;;;2.20;0.80;;;13.10;1.00;;;;;;5114845;28;20507;-59
2023/05/13 00:03:42;;;;;;;1.00;0.70;;;13.10;1.00;;;;;;5116206;28;20420;-59
2023/05/13 00:06:10;;;;;;;1.50;0.65;;;13.10;1.00;;;;;;5116423;28;20416;-58
2023/05/13 00:08:37;;;;;;;2.28;0.70;;;13.10;1.00;;;;;;5115095;28;20500;-59
2023/05/13 00:11:04;;;;;;;0.90;0.60;;;13.10;1.00;;;;;;5115189;28;20423;-59
2023/05/13 00:13:31;;;;;;;1.30;0.70;;;13.10;1.00;;;;;;5116108;28;20842;-59
2023/05/13 00:15:59;;;;;;;0.98;0.70;;;13.10;1.00;;;;;;5116222;28;20431;-60
2023/05/13 00:18:26;;;;;;;0.90;0.70;;;13.10;1.00;;;;;;5115074;28;20432;-59
2023/05/13 00:20:53;;;;;;;1.30;0.70;;;13.10;1.00;;;;;;5116338;28;20428;-59
2023/05/13 00:23:21;;;;;;;1.00;0.70;;;13.00;1.00;;;;;;5116597;28;20511;-58
2023/05/13 00:25:48;;;;;;;1.60;0.70;;;13.10;3.20;;;;;;5116478;28;20447;-59
2023/05/13 00:28:15;;;;;;;1.10;0.80;;;13.10;1.00;;;;;;5115115;28;20440;-59
2023/05/13 00:30:44;;;;;;;1.00;0.80;;;13.20;1.00;;;;;;5116179;28;20424;-59
2023/05/13 00:33:11;;;;;;;0.90;0.70;;;13.30;1.00;;;;;;5115920;28;20415;-58
2023/05/13 00:35:38;;;;;;;1.60;0.80;;;13.40;1.00;;;;;;5115342;28;20443;-59
2023/05/13 00:38:06;;;;;;;1.10;0.80;;;13.30;1.00;;;;;;5100034;28;20456;-59
2023/05/13 00:40:38;;;;;;;0.90;0.70;;;13.30;1.00;;;;;;5094227;28;20771;-59
2023/05/13 00:43:05;;;;;;;1.00;0.80;;;13.30;1.00;;;;;;5094668;28;20426;-59
2023/05/13 00:45:33;;;;;;;1.00;0.70;;;13.20;1.00;;;;;;5095791;28;20627;-58
2023/05/13 00:48:00;;;;;;;1.50;0.70;;;13.10;1.00;;;;;;5115614;28;20423;-58
2023/05/13 00:50:27;;;;;;;1.00;0.70;;;13.10;1.00;;;;;;5115519;28;20832;-59
2023/05/13 00:52:57;;;;;;;1.40;0.70;;;13.10;1.00;;;;;;5115508;28;20479;-60
2023/05/13 00:55:24;;;;;;;1.10;0.70;;;13.10;1.00;;;;;;5113987;28;20755;-59
2023/05/13 00:57:52;;;;;;;0.80;0.70;;;13.10;1.00;;;;;;5115327;28;20422;-59
2023/05/13 01:00:20;;;;;;;0.80;0.60;;;13.10;1.00;;;;;;5109959;28;20851;-59
2023/05/13 01:02:53;;;;;;;1.00;0.70;;;13.10;1.00;;;;;;5115100;28;20939;-59
2023/05/13 01:05:26;;;;;;;0.80;0.70;;;13.10;1.00;;;;;;5115325;28;20428;-59
2023/05/13 01:08:00;;;;;;;1.00;0.70;;;13.10;1.00;;;;;;5115281;28;20506;-59
2023/05/13 01:10:36;;;;;;;1.00;0.70;;;13.10;1.00;;;;;;5114178;28;20859;-58
2023/05/13 01:13:17;;;;;;;0.90;0.70;;;13.10;1.00;;;;;;5119601;28;20408;-58
2023/05/13 01:15:48;;;;;;;1.00;0.70;;;13.00;1.00;;;;;;5119391;28;20433;-59
2023/05/13 01:18:20;;;;;;;1.13;0.70;;;13.10;1.00;;;;;;5119622;28;20435;-59
2023/05/13 01:20:47;;;;;;;0.90;0.70;;;13.10;1.00;;;;;;5102857;28;20738;-60
2023/05/13 01:23:15;;;;;;;0.90;0.70;;;13.20;1.00;;;;;;5106321;28;20516;-59
2023/05/13 01:25:44;;;;;;;1.00;0.80;;;13.20;1.00;;;;;;5115945;28;20447;-59
2023/05/13 01:28:11;;;;;;;0.90;0.70;;;13.10;1.00;;;;;;5117644;28;20416;-59
2023/05/13 01:30:39;;;;;;;1.40;0.80;;;13.00;1.00;;;;;;5116159;28;20436;-59
2023/05/13 01:33:06;;;;;;;1.05;0.80;;;12.90;1.00;;;;;;5117710;28;20945;-59
2023/05/13 01:35:34;;;;;;;1.05;0.73;;;12.80;1.00;;;;;;5118315;28;20431;-59
2023/05/13 01:38:03;;;;;;;1.00;0.80;;;12.70;1.00;;;;;;5116525;28;20514;-59
2023/05/13 01:40:32;;;;;;;1.50;0.70;;;12.60;1.00;;;;;;5119242;28;20847;-59
2023/05/13 01:43:00;;;;;;;1.70;0.63;;;12.60;1.00;;;;;;5119108;28;20496;-59
2023/05/13 01:45:28;;;;;;;1.10;0.75;;;12.50;1.00;;;;;;5119300;28;20428;-59
2023/05/13 01:47:55;;;;;;;0.93;0.60;;;12.50;1.00;;;;;;5118078;28;20808;-58
2023/05/13 01:50:22;;;;;;;1.60;0.70;;;12.50;1.00;;;;;;5119435;28;20420;-58
2023/05/13 01:52:49;;;;;;;1.08;0.70;;;12.40;1.00;;;;;;5119552;28;20415;-58
2023/05/13 01:55:17;;;;;;;1.60;0.70;;;12.50;1.00;;;;;;5117614;28;20436;-59
2023/05/13 01:57:45;;;;;;;1.00;0.70;;;12.50;1.00;;;;;;5118003;28;20423;-58
2023/05/13 02:00:13;;;;;;;1.00;0.70;;;12.50;1.00;;;;;;5118058;28;20738;-58
2023/05/13 02:02:40;;;;;;;1.13;0.60;;;12.50;1.00;;;;;;5118830;28;20433;-59
2023/05/13 02:05:08;;;;;;;1.13;0.80;;;12.40;1.00;;;;;;5116301;28;20517;-59
2023/05/13 02:07:35;;;;;;;0.90;0.70;;;12.40;1.00;;;;;;5118427;28;20427;-59
2023/05/13 02:10:02;;;;;;;1.00;0.80;;;12.20;1.00;;;;;;5118575;28;20492;-59
2023/05/13 02:12:29;;;;;;;1.70;0.70;;;12.10;1.00;;;;;;5115745;28;20423;-58
2023/05/13 02:14:57;;;;;;;1.00;0.70;;;12.10;1.00;;;;;;5118310;28;20777;-61
2023/05/13 02:17:24;;;;;;;0.95;0.70;;;12.20;2.60;;;;;;5117549;28;20427;-58
2023/05/13 02:19:54;;;;;;;0.95;0.60;;;12.20;1.00;;;;;;5117870;28;20731;-59
2023/05/13 02:22:21;;;;;;;1.50;0.70;;;12.30;1.00;;;;;;5116441;28;20485;-59
2023/05/13 02:24:48;;;;;;;0.90;0.70;;;12.20;1.00;;;;;;5118428;28;20424;-59
2023/05/13 02:27:15;;;;;;;1.00;0.70;;;12.10;1.00;;;;;;5117908;28;20765;-59
2023/05/13 02:29:43;;;;;;;1.10;0.77;;;12.10;1.00;;;;;;5118317;28;20488;-58
2023/05/13 02:32:11;;;;;;;1.13;0.70;;;12.10;1.00;;;;;;5117445;28;20439;-59
2023/05/13 02:34:39;;;;;;;1.70;0.80;;;12.10;1.00;;;;;;5117031;28;20515;-59
2023/05/13 02:37:06;;;;;;;1.20;0.80;;;12.00;1.00;;;;;;5117888;28;20649;-59
2023/05/13 02:39:33;;;;;;;1.00;0.70;;;11.90;1.00;;;;;;5115605;28;20432;-58
2023/05/13 02:42:00;;;;;;;1.10;0.80;;;11.80;1.00;;;;;;5115007;28;20416;-59
2023/05/13 02:44:27;;;;;;;1.00;0.70;;;11.80;1.00;;;;;;5115186;28;20862;-59
2023/05/13 02:46:54;;;;;;;1.40;0.70;;;11.80;1.00;;;;;;5114834;28;20421;-59
2023/05/13 02:49:22;;;;;;;1.00;0.70;;;11.90;1.00;;;;;;5107576;28;20445;-58
2023/05/13 02:51:49;;;;;;;1.10;0.80;;;11.90;1.00;;;;;;5113252;28;20797;-59
2023/05/13 02:54:16;;;;;;;1.00;0.70;;;11.90;1.00;;;;;;5115113;28;20427;-59
2023/05/13 02:56:43;;;;;;;1.30;0.70;;;11.90;1.00;;;;;;5116762;28;20431;-59
2023/05/13 02:59:11;;;;;;;1.10;0.80;;;12.00;1.00;;;;;;5117381;28;20428;-60
2023/05/13 03:01:38;;;;;;;0.82;0.70;;;12.00;1.00;;;;;;5117816;28;20791;-59
2023/05/13 03:04:05;;;;;;;1.00;0.70;;;11.80;1.00;;;;;;5116542;28;20439;-57
2023/05/13 03:06:33;;;;;;;0.90;0.70;;;11.70;1.00;;;;;;5102447;28;20990;-59
2023/05/13 03:09:00;;;;;;;1.97;0.70;;;11.70;1.00;;;;;;5108696;28;20437;-60
2023/05/13 03:11:28;;;;;;;0.93;0.70;;;11.70;1.00;;;;;;5099845;28;20851;-60
2023/05/13 03:13:55;;;;;;;1.00;0.60;;;11.80;1.00;;;;;;5115214;28;20728;-59
2023/05/13 03:16:25;;;;;;;1.05;0.70;;;12.00;1.00;;;;;;5115232;28;20869;-58
2023/05/13 03:18:53;;;;;;;0.93;0.70;;;11.90;1.00;;;;;;5111390;28;20527;-59
2023/05/13 03:21:20;;;;;;;2.33;0.70;;;11.90;99.90;;;;;;5116916;28;20795;-59
2023/05/13 03:23:49;;;;;;;0.90;0.70;;;11.80;99.90;;;;;;5111207;28;20430;-59
2023/05/13 03:26:20;;;;;;;1.10;0.70;;;11.80;1.00;;;;;;5098365;28;20483;-58
2023/05/13 03:28:47;;;;;;;2.80;0.70;;;11.80;99.90;;;;;;5109669;28;20421;-58
2023/05/13 03:31:19;;;;;;;2.30;0.80;;;11.70;99.90;;;;;;5117226;28;20519;-59
2023/05/13 03:33:46;;;;;;;1.00;0.70;;;11.70;1.00;;;;;;5116512;28;20444;-59
2023/05/13 03:36:15;;;;;;;1.88;0.70;;;11.70;1.00;;;;;;5104455;28;20429;-59
2023/05/13 03:38:42;;;;;;;0.80;0.60;;;11.70;1.00;;;;;;5102631;28;20436;-59
2023/05/13 03:41:11;;;;;;;1.00;0.70;;;11.70;1.00;;;;;;5103456;28;20523;-59
2023/05/13 03:43:38;;;;;;;1.08;0.70;;;11.80;1.00;;;;;;5115860;28;20434;-59
2023/05/13 03:46:06;;;;;;;1.63;0.70;;;11.80;99.90;;;;;;5114854;28;20719;-58
2023/05/13 03:48:33;;;;;;;1.10;0.70;;;11.80;99.90;;;;;;5113744;28;20443;-58
2023/05/13 03:51:00;;;;;;;1.00;0.70;;;11.80;99.90;;;;;;5116280;28;20469;-59
2023/05/13 03:53:28;;;;;;;1.20;0.70;;;11.90;99.90;;;;;;5114878;28;20428;-60
2023/05/13 03:55:55;;;;;;;0.90;0.70;;;11.90;99.90;;;;;;5112644;28;20456;-58
2023/05/13 03:58:24;;;;;;;1.30;0.70;;;11.80;99.90;;;;;;5114958;28;20419;-59
2023/05/13 04:00:54;;;;;;;1.10;0.70;;;11.70;99.90;;;;;;5096319;28;20426;-58
2023/05/13 04:03:21;;;;;;;1.50;0.70;;;11.70;99.90;;;;;;5095822;28;20501;-58
2023/05/13 04:05:48;;;;;;;1.40;0.70;;;11.80;99.90;;;;;;5095330;28;20529;-59
2023/05/13 04:08:16;;;;;;;1.50;0.70;;;11.90;99.90;;;;;;5114010;28;20528;-59
2023/05/13 04:10:43;;;;;;;2.20;0.68;;;11.90;99.90;;;;;;5114678;28;20897;-58
2023/05/13 04:13:10;;;;;;;1.02;0.70;;;11.90;99.90;;;;;;5116080;28;20717;-58
2023/05/13 04:15:39;;;;;;;0.80;0.70;;;11.90;99.90;;;;;;5113999;28;20436;-59
2023/05/13 04:18:07;;;;;;;1.00;0.70;;;11.90;99.90;;;;;;5115285;28;20477;-58
2023/05/13 04:20:34;;;;;;;1.10;0.60;;;12.00;99.90;;;;;;5112708;28;20440;-58
2023/05/13 04:23:02;;;;;;;1.90;0.70;;;11.90;99.90;;;;;;5116592;28;20847;-59
2023/05/13 04:25:30;;;;;;;1.10;0.70;;;12.00;99.90;;;;;;5115949;28;20428;-58
2023/05/13 04:27:58;;;;;;;0.90;0.60;;;12.10;99.90;;;;;;5112969;28;20443;-59
2023/05/13 04:30:25;;;;;;;1.20;0.60;;;12.00;99.90;;;;;;5113158;28;20825;-59
2023/05/13 04:32:53;;;;;;;0.80;0.60;;;12.00;99.90;;;;;;5115222;28;20469;-59
2023/05/13 04:35:21;;;;;;;1.10;0.75;;;11.90;99.90;;;;;;5114837;28;20412;-59
2023/05/13 04:37:48;;;;;;;1.00;0.70;;;11.90;99.90;;;;;;5114889;28;20512;-59
2023/05/13 04:40:16;;;;;;;1.00;0.70;;;11.80;99.90;;;;;;5115600;28;20428;-59
2023/05/13 04:42:44;;;;;;;1.23;0.80;;;11.90;99.90;;;;;;5114936;28;20424;-58
2023/05/13 04:45:11;;;;;;;1.10;0.70;;;11.90;99.90;;;;;;5110401;28;20444;-58
2023/05/13 04:47:38;;;;;;;1.00;0.80;;;11.90;99.90;;;;;;5098640;28;20440;-60
2023/05/13 04:50:07;;;;;;;1.20;0.70;;;11.90;99.90;;;;;;5095316;28;20422;-59
2023/05/13 04:52:36;;;;;;;1.02;0.60;;;11.90;99.90;;;;;;5094878;28;20418;-59
2023/05/13 04:55:03;;;;;;;1.10;0.70;;;11.80;99.90;;;;;;5092863;28;20475;-58
2023/05/13 04:57:30;;;;;;;1.00;0.70;;;11.90;99.90;;;;;;5093533;28;20498;-58
2023/05/13 04:59:57;;;;;;;1.37;0.67;;;11.90;99.90;;;;;;5108664;28;20435;-58
2023/05/13 05:02:25;;;;;;;0.80;0.70;;;11.90;99.90;;;;;;5104973;28;20512;-57
2023/05/13 05:04:52;;;;;;;1.00;0.80;;;11.90;99.90;;;;;;5114383;28;20459;-58
2023/05/13 05:07:21;;;;;;;0.90;0.70;;;11.90;99.90;;;;;;5115171;28;20828;-59
2023/05/13 05:09:48;;;;;;;1.50;0.70;;;11.90;99.90;;;;;;5114860;28;20741;-58
2023/05/13 05:12:15;;;;;;;1.50;0.80;;;11.90;99.90;;;;;;5111451;28;20825;-58
2023/05/13 05:14:51;;;;;;;3.27;0.80;;;11.90;99.90;;;;;;5113022;28;20785;-58
2023/05/13 05:17:18;;;;;;;2.30;0.80;;;11.90;99.90;;;;;;5115223;28;20428;-58
2023/05/13 05:19:45;;;;;;;1.60;0.70;;;11.70;99.90;;;;;;5113711;28;20442;-58
2023/05/13 05:22:12;;;;;;;1.10;0.80;;;11.60;99.90;;;;;;5112223;28;20432;-56
2023/05/13 05:24:41;;;;;;;1.70;0.80;;;11.70;99.90;;;;;;5114897;28;20431;-56
2023/05/13 05:27:08;;;;;;;1.00;0.80;;;11.70;99.90;;;;;;5114331;28;20424;-57
2023/05/13 05:29:35;;;;;;;1.30;0.80;;;11.80;99.90;;;;;;5114173;28;20428;-59
2023/05/13 05:32:02;;;;;;;0.90;0.60;;;11.70;99.90;;;;;;5113162;28;20459;-57
2023/05/13 05:34:29;;;;;;;1.10;0.80;;;11.60;99.90;;;;;;5114123;28;20427;-58
2023/05/13 05:36:56;;;;;;;1.00;0.80;;;11.60;99.90;;;;;;5113790;28;20515;-58
2023/05/13 05:39:23;;;;;;;0.90;0.70;;;11.80;99.90;;;;;;5114499;28;20427;-58
2023/05/13 05:41:51;;;;;;;1.00;0.70;;;11.80;99.90;;;;;;5115839;28;20420;-58
2023/05/13 05:44:18;;;;;;;1.33;0.70;;;11.90;99.90;;;;;;5113980;28;20432;-57
2023/05/13 05:46:45;;;;;;;1.90;0.80;;;11.90;99.90;;;;;;5113128;28;20416;-57
2023/05/13 05:49:12;;;;;;;2.50;0.80;;;12.00;99.90;;;;;;5114182;28;20439;-59
2023/05/13 05:51:39;;;;;;;1.20;0.80;;;12.00;99.90;;;;;;5113720;28;20427;-59
2023/05/13 05:54:06;;;;;;;1.10;0.80;;;11.90;99.90;;;;;;5111841;28;20432;-58
2023/05/13 05:56:33;;;;;;;1.00;0.70;;;11.80;99.90;;;;;;5113931;28;20412;-58
2023/05/13 05:59:02;;;;;;;1.50;0.80;;;11.80;99.90;;;;;;5117579;28;20431;-57
2023/05/13 06:01:32;;;;;;;1.00;0.70;;;11.80;99.90;;;;;;5116615;28;20465;-58
2023/05/13 06:03:59;;;;;;;1.30;0.70;;;11.70;99.90;;;;;;5097455;28;20532;-58
2023/05/13 06:06:26;;;;;;;1.40;0.90;;;11.80;1.00;;;;;;5095539;28;20414;-58
2023/05/13 06:08:53;;;;;;;0.90;0.70;;;11.80;99.90;;;;;;5111128;28;20878;-58
2023/05/13 06:11:20;;;;;;;1.70;0.80;;;11.80;99.90;;;;;;5115110;28;20440;-58
2023/05/13 06:13:47;;;;;;;1.05;0.70;;;11.80;99.90;;;;;;5114063;28;21148;-58
2023/05/13 06:16:16;;;;;;;1.80;0.80;;;11.80;99.90;;;;;;5116166;28;20428;-59
2023/05/13 06:18:43;;;;;;;1.00;0.80;;;12.00;99.90;;;;;;5116984;28;20408;-59
2023/05/13 06:21:10;;;;;;;2.63;0.70;;;12.10;99.90;;;;;;5114646;28;20561;-59
2023/05/13 06:23:37;;;;;;;1.05;0.80;;;12.20;99.90;;;;;;5115534;28;20439;-58
2023/05/13 06:26:04;;;;;;;1.00;0.80;;;12.20;99.90;;;;;;5116299;28;20461;-58
2023/05/13 06:28:31;;;;;;;1.10;0.90;;;12.20;99.90;;;;;;5116744;28;20416;-58
2023/05/13 06:30:58;;;;;;;1.47;0.80;;;12.30;99.90;;;;;;5115576;28;20727;-58
2023/05/13 06:33:27;;;;;;;1.10;0.80;;;12.40;99.90;;;;;;5114131;28;20412;-59
2023/05/13 06:35:54;;;;;;;1.30;0.90;;;12.40;99.90;;;;;;5114153;28;20766;-59
2023/05/13 06:38:21;;;;;;;1.00;0.80;;;12.30;99.90;;;;;;5112738;28;20456;-59
2023/05/13 06:40:48;;;;;;;1.80;0.80;;;12.20;99.90;;;;;;5115147;28;20801;-55
2023/05/13 06:43:16;;;;;;;1.35;0.90;;;12.10;99.90;;;;;;5113768;28;20407;-56
2023/05/13 06:45:45;;;;;;;1.20;0.80;;;12.20;99.90;;;;;;5114939;28;20918;-55
2023/05/13 06:48:13;;;;;;;1.50;0.80;;;12.30;99.90;;;;;;5114983;28;20431;-54
2023/05/13 06:50:42;;;;;;;1.10;0.80;;;12.60;99.90;;;;;;5114694;28;20507;-55
2023/05/13 06:53:10;;;;;;;1.25;0.80;;;12.70;99.90;;;;;;5115305;28;20511;-56
2023/05/13 06:55:41;;;;;;;1.02;0.90;;;12.60;99.90;;;;;;5114838;28;20428;-56
2023/05/13 06:58:08;;;;;;;0.98;0.80;;;12.60;99.90;;;;;;5116961;28;20727;-55
2023/05/13 07:00:38;;;;;;;1.60;0.90;;;12.70;99.90;;;;;;5115424;28;20485;-56
2023/05/13 07:03:05;;;;;;;1.40;0.80;;;12.70;99.90;;;;;;5115681;28;20419;-55
2023/05/13 07:05:32;;;;;;;1.00;0.80;;;12.60;99.90;;;;;;5116171;28;20436;-55
2023/05/13 07:08:05;;;;;;;1.10;0.80;;;12.50;99.90;;;;;;5116375;28;20427;-56
2023/05/13 07:10:32;;;;;;;1.40;0.90;;;12.60;99.90;;;;;;5117136;28;20431;-56
2023/05/13 07:13:00;;;;;;;1.20;0.80;;;12.60;99.90;;;;;;5115898;28;20448;-57
2023/05/13 07:15:27;;;;;;;1.20;0.90;;;12.80;99.90;;;;;;5115712;28;20423;-55
2023/05/13 07:17:54;;;;;;;1.10;0.80;;;12.80;99.90;;;;;;5116775;28;20882;-55
2023/05/13 07:20:21;;;;;;;3.00;0.80;;;12.80;99.90;;;;;;5114792;28;20874;-54
2023/05/13 07:22:48;;;;;;;1.10;0.80;;;12.80;99.90;;;;;;5115364;28;20881;-54
2023/05/13 07:25:17;;;;;;;1.33;0.80;;;13.00;99.90;;;;;;5103919;28;20726;-55
2023/05/13 07:27:44;;;;;;;1.00;0.90;;;13.10;99.90;;;;;;5095754;28;20446;-55
2023/05/13 07:30:12;;;;;;;1.00;0.80;;;13.30;99.90;;;;;;5095123;28;20432;-55
2023/05/13 07:32:39;;;;;;;1.30;0.70;;;13.50;99.90;;;;;;5093873;28;20418;-55
2023/05/13 07:35:08;;;;;;;1.40;0.80;;;13.70;99.90;;;;;;5093888;28;20425;-56
2023/05/13 07:37:35;;;;;;;1.15;0.80;;;13.70;99.90;;;;;;5093610;28;20784;-56
2023/05/13 07:40:03;;;;;;;1.55;1.00;;;13.90;99.90;;;;;;5095010;28;20737;-56
2023/05/13 07:42:31;;;;;;;1.20;0.80;;;13.80;99.90;;;;;;5095696;28;20425;-56
2023/05/13 07:44:59;;;;;;;1.08;0.80;;;13.60;99.90;;;;;;5095382;28;20469;-56
2023/05/13 07:47:27;;;;;;;1.05;0.80;;;13.90;99.90;;;;;;5095175;28;20418;-53
2023/05/13 07:49:54;;;;;;;1.42;0.90;;;14.00;99.90;;;;;;5095839;28;20426;-54
2023/05/13 07:52:22;;;;;;;1.30;0.90;;;14.30;99.90;;;;;;5096180;28;20422;-56
2023/05/13 07:54:49;;;;;;;1.88;0.85;;;14.40;99.90;;;;;;5095004;28;20426;-56
2023/05/13 07:57:16;;;;;;;1.92;0.80;;;14.40;99.90;;;;;;5102765;28;20424;-57
2023/05/13 07:59:44;;;;;;;1.60;0.90;;;14.50;99.90;;;;;;5114186;28;20431;-56
2023/05/13 08:02:12;;;;;;;1.20;1.00;;;14.20;99.90;;;;;;5115574;28;20500;-57
2023/05/13 08:04:42;;;;;;;1.80;0.80;;;14.10;99.90;;;;;;5114870;28;20443;-53
2023/05/13 08:07:10;;;;;;;1.10;0.80;;;14.00;99.90;;;;;;5115958;28;20433;-56
2023/05/13 08:09:37;;;;;;;1.10;0.85;;;14.00;99.90;;;;;;5115139;28;20477;-56
2023/05/13 08:12:05;;;;;;;1.08;0.80;;;14.10;99.90;;;;;;5115787;28;20784;-56
2023/05/13 08:14:32;;;;;;;1.40;0.90;;;14.20;99.90;;;;;;5113741;28;20412;-56
2023/05/13 08:17:00;;;;;;;1.10;0.90;;;14.30;99.90;;;;;;5112822;28;20720;-58
2023/05/13 08:19:28;;;;;;;1.02;0.80;;;14.40;99.90;;;;;;5109856;28;20432;-59
2023/05/13 08:21:55;;;;;;;1.00;0.80;;;14.60;99.90;;;;;;5112940;28;20704;-55
2023/05/13 08:24:22;;;;;;;1.50;0.90;;;14.50;99.90;;;;;;5113084;28;20434;-58
2023/05/13 08:26:49;;;;;;;1.70;0.90;;;14.60;99.90;;;;;;5112729;28;20415;-56
2023/05/13 08:29:16;;;;;;;1.10;0.80;;;14.60;99.90;;;;;;5113315;28;20858;-55
2023/05/13 08:31:43;;;;;;;1.35;1.00;;;14.70;99.90;;;;;;5112941;28;20420;-57
2023/05/13 08:34:11;;;;;;;2.00;0.90;;;14.80;99.90;;;;;;5113563;28;20439;-57
2023/05/13 08:36:38;;;;;;;1.90;0.90;;;14.70;99.90;;;;;;5112964;28;20411;-54
2023/05/13 08:39:06;;;;;;;1.88;1.00;;;14.60;99.90;;;;;;5114354;28;20442;-56
2023/05/13 08:41:34;;;;;;;2.30;1.10;;;14.60;99.90;;;;;;5113730;28;20473;-56
2023/05/13 08:44:04;;;;;;;2.90;0.90;;;14.40;99.90;;;;;;5112192;28;20882;-57
2023/05/13 08:46:41;;;;;;;1.50;0.80;;;14.40;99.90;;;;;;5111842;28;20423;-56
2023/05/13 08:49:09;;;;;;;1.10;0.90;;;14.20;99.90;;;;;;5111818;28;20416;-56
2023/05/13 08:51:37;;;;;;;1.63;1.00;;;14.30;99.90;;;;;;5111319;28;20508;-56
2023/05/13 08:54:05;;;;;;;2.08;0.90;;;14.30;99.90;;;;;;5112569;28;20528;-57
2023/05/13 08:56:34;;;;;;;1.17;0.90;;;14.40;99.90;;;;;;5112567;28;20423;-57
2023/05/13 08:59:01;;;;;;;1.25;0.90;;;14.50;99.90;;;;;;5112829;28;20430;-56
2023/05/13 09:01:30;;;;;;;1.80;0.90;;;14.50;99.90;;;;;;5113131;28;20416;-58
2023/05/13 09:04:01;;;;;;;1.20;0.90;;;14.50;99.90;;;;;;5113807;28;20435;-55
2023/05/13 09:06:28;;;;;;;1.70;1.00;;;14.40;99.90;;;;;;5114563;28;20416;-57
2023/05/13 09:08:57;;;;;;;1.00;0.90;;;14.40;99.90;;;;;;5114417;28;20840;-57
2023/05/13 09:11:25;;;;;;;1.10;0.80;;;14.30;99.90;;;;;;5112040;28;20419;-56
2023/05/13 09:14:06;;;;;;;2.40;0.90;;;14.30;99.90;;;;;;5112049;28;20431;-56
2023/05/13 09:16:35;;;;;;;1.70;0.90;;;14.20;99.90;;;;;;5113035;28;20840;-57
2023/05/13 09:19:05;;;;;;;1.20;0.90;;;14.20;99.90;;;;;;5113014;28;20432;-57
2023/05/13 09:21:34;;;;;;;1.10;0.90;;;14.40;99.90;;;;;;5108258;28;20447;-57
2023/05/13 09:24:10;;;;;;;1.20;0.90;;;14.60;99.90;;;;;;5110621;28;20461;-57
2023/05/13 09:26:38;;;;;;;1.40;0.90;;;14.70;99.90;;;;;;5108556;28;20874;-57
2023/05/13 09:29:18;;;;;;;1.35;0.98;;;14.60;99.90;;;;;;5112179;28;20416;-58
2023/05/13 09:31:47;;;;;;;2.47;0.80;;;14.60;99.90;;;;;;5101125;28;20435;-57
2023/05/13 09:34:14;;;;;;;1.20;0.80;;;14.60;99.90;;;;;;5107219;28;20526;-57
2023/05/13 09:36:41;;;;;;;1.13;0.80;;;14.50;99.90;;;;;;5115387;28;20747;-57
2023/05/13 09:39:12;;;;;;;1.08;0.80;;;14.50;99.90;;;;;;5117465;28;20707;-56
2023/05/13 09:41:39;;;;;;;1.17;0.80;;;14.60;99.90;;;;;;5116239;28;20510;-57
2023/05/13 09:44:08;;;;;;;1.33;0.90;;;14.60;99.90;;;;;;5113101;28;20778;-57
2023/05/13 09:46:35;;;;;;;1.50;0.80;;;14.60;99.90;;;;;;5098207;28;20422;-55
2023/05/13 09:49:04;;;;;;;1.70;0.90;;;14.60;99.90;;;;;;5094581;28;21031;-56
2023/05/13 09:51:31;;;;;;;1.10;0.80;;;14.60;99.90;;;;;;5114122;28;20432;-55
2023/05/13 09:54:05;;;;;;;1.20;0.90;;;14.80;99.90;;;;;;5101361;28;20430;-50
2023/05/13 09:56:34;;;;;;;0.90;0.80;;;14.90;99.90;;;;;;5112921;28;20431;-54
2023/05/13 09:59:02;;;;;;;2.00;0.90;;;14.90;99.90;;;;;;5109675;28;20704;-58
2023/05/13 10:01:29;;;;;;;1.27;0.80;;;14.80;99.90;;;;;;5099333;28;20472;-54
2023/05/13 10:03:58;;;;;;;0.90;0.70;;;14.90;99.90;;;;;;5102844;28;20440;-55
2023/05/13 10:06:26;;;;;;;1.00;0.80;;;15.10;99.90;;;;;;5111026;28;20463;-57
2023/05/13 10:08:55;;;;;;;2.35;0.90;;;15.40;99.90;;;;;;5108971;28;20467;-56
2023/05/13 10:11:25;;;;;;;1.20;0.70;;;15.60;99.90;;;;;;5106001;28;20498;-57
2023/05/13 10:13:58;;;;;;;1.30;0.90;;;15.60;99.90;;;;;;5105932;28;20434;-57
2023/05/13 10:16:27;;;;;;;1.20;0.80;;;15.40;99.90;;;;;;5105300;28;20411;-58
2023/05/13 10:18:56;;;;;;;1.10;0.80;;;15.40;99.90;;;;;;5105590;28;20520;-57
2023/05/13 10:21:23;;;;;;;1.20;0.77;;;15.50;99.90;;;;;;5111669;28;21006;-57
2023/05/13 10:23:51;;;;;;;1.67;0.80;;;15.60;99.90;;;;;;5103884;28;20428;-58
2023/05/13 10:26:20;;;;;;;1.10;0.80;;;15.40;99.90;;;;;;5114658;28;20434;-58
2023/05/13 10:28:48;;;;;;;1.70;0.80;;;15.50;99.90;;;;;;5107757;28;20944;-57
2023/05/13 10:31:17;;;;;;;1.30;0.90;;;15.70;99.90;;;;;;5107975;28;20432;-57
2023/05/13 10:33:45;;;;;;;1.05;0.80;;;15.80;99.90;;;;;;5110846;28;20424;-55
2023/05/13 10:36:31;;;;;;;1.17;0.80;;;16.00;99.90;;;;;;5109600;28;21001;-56
2023/05/13 10:39:25;;;;;;;1.10;0.80;;;15.90;99.90;;;;;;5095432;28;20464;-57
2023/05/13 10:42:46;;;;;;;1.50;0.80;;;15.70;99.90;;;;;;5109964;28;20438;-56
2023/05/13 10:45:17;;;;;;;1.08;0.70;;;15.60;99.90;;;;;;5110907;28;20432;-57
2023/05/13 10:47:50;;;;;;;1.03;0.80;;;15.30;99.90;;;;;;5115673;28;20423;-57
2023/05/13 10:50:24;;;;;;;1.00;0.70;;;15.30;99.90;;;;;;5107422;28;20512;-56
2023/05/13 10:52:56;;;;;;;1.30;0.80;;;15.20;99.90;;;;;;5093621;28;20597;-56
2023/05/13 10:55:23;;;;;;;1.27;0.80;;;14.90;99.90;;;;;;5094396;28;20457;-56
2023/05/13 10:58:11;;;;;;;1.20;0.90;;;14.80;99.90;;;;;;5095674;28;20418;-56
2023/05/13 11:00:39;;;;;;;1.63;0.80;;;14.90;99.90;;;;;;5094702;28;20430;-58
2023/05/13 11:03:13;;;;;;;1.02;0.88;;;14.90;99.90;;;;;;5095037;28;20846;-57
2023/05/13 11:05:43;;;;;;;1.90;0.80;;;15.00;99.90;;;;;;5097030;28;21013;-59
2023/05/13 11:08:10;;;;;;;1.20;0.80;;;15.00;99.90;;;;;;5095146;28;20425;-58
2023/05/13 11:10:38;;;;;;;1.10;0.90;;;15.00;99.90;;;;;;5098096;28;20487;-57
2023/05/13 11:13:23;;;;;;;2.80;1.00;;;15.00;99.90;;;;;;5096173;28;20880;-58
2023/05/13 11:15:52;;;;;;;1.10;0.90;;;15.10;99.90;;;;;;5104649;28;20431;-56
2023/05/13 11:18:28;;;;;;;1.38;0.90;;;15.30;99.90;;;;;;5103884;28;20437;-57
2023/05/13 11:20:56;;;;;;;2.70;0.80;;;15.50;99.90;;;;;;5111817;28;20986;-57
2023/05/13 11:23:23;;;;;;;1.15;0.80;;;15.60;99.90;;;;;;5113484;28;20439;-56
2023/05/13 11:26:13;;;;;;;1.13;0.90;;;15.90;99.90;;;;;;5098991;28;20479;-56
2023/05/13 11:29:03;;;;;;;1.60;0.80;;;16.10;99.90;;;;;;5094250;28;20421;-56
2023/05/13 11:31:43;;;;;;;1.23;0.90;;;16.20;99.90;;;;;;5094006;28;20425;-56
2023/05/13 11:34:14;;;;;;;1.50;0.80;;;16.30;99.90;;;;;;5105099;28;20479;-55
2023/05/13 11:36:43;;;;;;;0.90;0.70;;;16.40;99.90;;;;;;5114821;28;20415;-56
2023/05/13 11:39:13;;;;;;;0.90;0.80;;;16.60;99.90;;;;;;5115044;28;20423;-56
2023/05/13 11:41:45;;;;;;;1.17;0.90;;;16.60;99.90;;;;;;5106027;28;20486;-56
2023/05/13 11:44:14;;;;;;;2.30;0.90;;;16.40;99.90;;;;;;5113628;28;20429;-53
2023/05/13 11:46:52;;;;;;;0.90;0.70;;;16.20;99.90;;;;;;5094673;28;20479;-56
2023/05/13 11:49:38;;;;;;;0.90;0.70;;;16.20;99.90;;;;;;5107584;28;20420;-54
2023/05/13 11:52:08;;;;;;;0.90;0.80;;;16.20;99.90;;;;;;5114707;28;20622;-56
2023/05/13 11:54:43;;;;;;;1.45;0.80;;;16.00;99.90;;;;;;5113048;28;20424;-53
2023/05/13 11:57:20;;;;;;;1.00;0.80;;;15.90;99.90;;;;;;5113925;28;20827;-55
2023/05/13 11:59:57;;;;;;;1.30;0.80;;;15.80;99.90;;;;;;5114181;28;20844;-56
2023/05/13 12:02:26;;;;;;;2.50;0.80;;;15.90;99.90;;;;;;5106358;28;20629;-56
2023/05/13 12:04:55;;;;;;;1.48;0.80;;;16.00;99.90;;;;;;5112141;28;20462;-55
2023/05/13 12:07:23;;;;;;;1.10;0.90;;;15.90;99.90;;;;;;5110690;28;20432;-55
2023/05/13 12:09:51;;;;;;;1.20;1.10;;;15.80;99.90;;;;;;5109899;28;20440;-56
2023/05/13 12:12:19;;;;;;;2.22;0.90;;;15.80;99.90;;;;;;5111913;28;20420;-57
2023/05/13 12:14:49;;;;;;;1.38;0.80;;;15.90;99.90;;;;;;5108428;28;20456;-56
2023/05/13 12:17:16;;;;;;;1.60;0.80;;;16.10;99.90;;;;;;5111713;28;20436;-52
2023/05/13 12:20:06;;;;;;;1.30;0.80;;;16.20;99.90;;;;;;5111185;28;20428;-54
2023/05/13 12:22:33;;;;;;;2.08;1.42;;;16.20;99.90;;;;;;5110982;28;20853;-58
2023/05/13 12:25:02;;;;;;;1.75;1.23;;;16.20;99.90;;;;;;5110443;28;20424;-55
2023/05/13 12:27:29;;;;;;;3.03;2.20;;;16.20;99.90;;;;;;5111940;28;20835;-59
2023/05/13 12:29:56;;;;;;;1.80;0.70;;;16.00;99.90;;;;;;5113277;28;20427;-58
2023/05/13 12:32:25;;;;;;;1.00;0.70;;;15.90;99.90;;;;;;5112937;28;20420;-59
2023/05/13 12:34:52;;;;;;;1.40;0.70;;;15.90;99.90;;;;;;5111949;28;20741;-58
2023/05/13 12:37:25;;;;;;;1.10;0.70;;;15.90;99.90;;;;;;5113446;28;20701;-58
2023/05/13 12:40:09;;;;;;;1.02;0.80;;;16.00;99.90;;;;;;5114691;28;20430;-59
2023/05/13 12:42:37;;;;;;;1.00;0.90;;;16.00;99.90;;;;;;5114724;28;20416;-57
2023/05/13 12:45:06;;;;;;;1.63;0.90;;;16.10;99.90;;;;;;5114132;28;20431;-59
2023/05/13 12:47:48;;;;;;;2.80;0.90;;;16.20;99.90;;;;;;5113268;28;20420;-58
2023/05/13 12:50:16;;;;;;;1.70;0.73;;;16.30;99.90;;;;;;5114930;28;20461;-59
2023/05/13 12:52:44;;;;;;;1.30;0.90;;;16.60;99.90;;;;;;5112655;28;20762;-59
2023/05/13 12:55:12;;;;;;;1.20;0.90;;;17.00;99.90;;;;;;5112282;28;20770;-57
2023/05/13 12:57:41;;;;;;;1.65;1.33;;;17.30;99.90;;;;;;5113461;28;20421;-60
2023/05/13 13:00:10;;;;;;;1.10;0.80;;;17.50;99.90;;;;;;5114452;28;20892;-60